Time;durP1;ratioP1;P1;durP2;ratioP2;P2;SDS_P1;SDS_P2;PMS_P1;PMS_P2;Temp;Humidity;BMP_temperature;BMP_pressure;BME280_temperature;BME280_humidity;BME280_pressure;Samples;Min_cycle;Max_cycle;Signal;HPM_P1;HPM_P2
2021/12/13 00:01:34;;;;;;;;;17.25;17.25;;;;;11.57;77.23;102075.19;5071127;27;45537;-56
2021/12/13 00:04:05;;;;;;;;;23.75;20.75;;;;;11.61;76.85;102071.50;5080596;27;45369;-61
2021/12/13 00:06:39;;;;;;;;;22.75;15.25;;;;;11.60;76.63;102067.09;5081614;27;45497;-57
2021/12/13 00:09:15;;;;;;;;;18.33;18.33;;;;;11.59;76.70;102071.56;5073922;27;45505;-59
2021/12/13 00:11:45;;;;;;;;;24.33;20.33;;;;;11.58;76.99;102067.13;5066740;27;45372;-59
2021/12/13 00:14:20;;;;;;;;;25.33;18.67;;;;;11.49;76.67;102054.16;5083670;27;47051;-58
2021/12/13 00:16:59;;;;;;;;;22.00;17.67;;;;;11.56;76.94;102063.66;5055507;28;45363;-60
2021/12/13 00:19:32;;;;;;;;;20.25;17.00;;;;;11.58;76.86;102058.28;5081750;27;45348;-62
2021/12/13 00:22:07;;;;;;;;;17.33;15.33;;;;;11.58;76.83;102051.13;5071681;27;46239;-59
2021/12/13 00:24:39;;;;;;;;;14.67;13.67;;;;;11.56;76.72;102039.69;5070153;28;45490;-60
2021/12/13 00:27:15;;;;;;;;;12.67;11.00;;;;;11.55;76.61;102051.25;5062403;27;45799;-57
2021/12/13 00:29:58;;;;;;;;;11.00;8.00;;;;;11.53;76.91;102045.13;5075425;27;45341;-60
2021/12/13 00:32:37;;;;;;;;;15.00;13.00;;;;;11.49;76.60;102051.50;5096157;27;45550;-59
2021/12/13 00:35:09;;;;;;;;;15.33;15.33;;;;;11.47;76.74;102046.22;5056247;28;45572;-59
2021/12/13 00:37:41;;;;;;;;;10.33;10.33;;;;;11.45;76.68;102044.53;5065727;27;45429;-61
2021/12/13 00:40:13;;;;;;;;;21.00;14.67;;;;;11.41;76.89;102038.44;5063142;27;45545;-58
2021/12/13 00:43:03;;;;;;;;;9.00;9.00;;;;;11.38;77.19;102029.72;5056963;27;45424;-62
2021/12/13 00:45:31;;;;;;;;;14.67;13.33;;;;;11.44;76.62;102049.00;5053735;27;45572;-60
2021/12/13 00:48:02;;;;;;;;;13.33;13.33;;;;;11.41;76.34;102040.25;5077769;28;45607;-60
2021/12/13 00:50:44;;;;;;;;;18.50;13.50;;;;;11.36;77.13;102031.56;5053587;28;45520;-62
2021/12/13 00:53:15;;;;;;;;;17.75;14.75;;;;;11.41;77.07;102038.44;5056046;28;46229;-57
2021/12/13 00:55:44;;;;;;;;;18.75;11.75;;;;;11.46;76.80;102051.63;5077395;27;45445;-59
2021/12/13 00:58:14;;;;;;;;;18.00;13.33;;;;;11.46;76.67;102040.97;5077463;27;45529;-60
2021/12/13 01:00:51;;;;;;;;;17.67;12.33;;;;;11.34;76.81;102039.63;5063110;28;45472;-58
2021/12/13 01:03:40;;;;;;;;;15.00;13.33;;;;;11.38;76.92;102045.69;5042786;28;46406;-57
2021/12/13 01:06:31;;;;;;;;;15.67;12.67;;;;;11.41;76.73;102045.56;5060587;27;45591;-57
2021/12/13 01:09:34;;;;;;;;;12.00;10.00;;;;;11.41;76.95;102042.91;5081159;27;45416;-56
2021/12/13 01:12:07;;;;;;;;;13.00;12.00;;;;;11.36;77.13;102047.53;5063282;27;45478;-57
2021/12/13 01:14:42;;;;;;;;;16.33;12.00;;;;;11.36;77.05;102043.09;5072291;27;46176;-62
2021/12/13 01:17:23;;;;;;;;;12.25;10.25;;;;;11.34;76.98;102036.09;5057550;27;45690;-57
2021/12/13 01:20:05;;;;;;;;;14.25;13.00;;;;;11.39;77.21;102048.28;5057232;28;45448;-56
2021/12/13 01:22:55;;;;;;;;;16.33;12.33;;;;;11.30;77.25;102034.44;5053510;28;45449;-60
2021/12/13 01:25:47;;;;;;;;;12.33;11.33;;;;;11.33;77.41;102036.97;5069900;27;46108;-57
2021/12/13 01:28:24;;;;;;;;;13.00;11.25;;;;;11.34;77.79;102042.28;5058923;28;45573;-62
2021/12/13 01:30:59;;;;;;;;;12.00;12.00;;;;;11.34;77.53;102038.75;5059182;27;45436;-58
2021/12/13 01:33:28;;;;;;;;;10.33;9.00;;;;;11.35;77.33;102037.81;5052046;28;45698;-59
2021/12/13 01:36:00;;;;;;;;;11.67;9.33;;;;;11.40;77.48;102041.19;5075570;27;46154;-57
2021/12/13 01:38:35;;;;;;;;;12.75;12.50;;;;;11.39;77.53;102044.75;5071606;27;45514;-58
2021/12/13 01:41:15;;;;;;;;;9.33;9.33;;;;;11.40;77.17;102041.19;5047321;28;45287;-56
2021/12/13 01:43:49;;;;;;;;;11.67;10.67;;;;;11.35;77.19;102038.69;5081153;27;45499;-58
2021/12/13 01:46:18;;;;;;;;;15.67;12.33;;;;;11.44;77.33;102048.13;5070516;27;46805;-57
2021/12/13 01:48:49;;;;;;;;;10.00;8.67;;;;;11.40;77.47;102042.03;5066701;27;45693;-59
2021/12/13 01:51:20;;;;;;;;;16.67;11.67;;;;;11.39;77.57;102055.41;5071336;27;46090;-57
2021/12/13 01:53:58;;;;;;;;;8.67;7.67;;;;;11.41;77.70;102056.22;5072809;27;45540;-59
2021/12/13 01:59:27;;;;;;;;;12.33;11.00;;;;;11.40;77.38;102051.81;5064592;27;45445;-58
2021/12/13 02:02:14;;;;;;;;;12.00;11.33;;;;;11.34;77.16;102042.28;5074241;27;45476;-60
2021/12/13 02:04:40;;;;;;;;;16.67;13.00;;;;;11.41;77.19;102054.44;5054978;28;45541;-58
2021/12/13 02:07:08;;;;;;;;;11.33;10.67;;;;;11.42;77.49;102052.63;5064102;27;45732;-59
2021/12/13 02:09:38;;;;;;;;;17.00;10.00;;;;;11.40;77.40;102050.03;5072099;27;45549;-54
2021/12/13 02:12:11;;;;;;;;;12.00;12.00;;;;;11.42;77.55;102049.97;5075494;27;45270;-59
2021/12/13 02:14:47;;;;;;;;;9.33;9.33;;;;;11.42;77.22;102057.97;5055328;28;45506;-54
2021/12/13 02:17:17;;;;;;;;;12.67;10.33;;;;;11.39;77.70;102058.09;5063724;27;46207;-56
2021/12/13 02:19:48;;;;;;;;;12.67;12.00;;;;;11.40;77.72;102051.81;5075392;27;45471;-57
2021/12/13 02:22:37;;;;;;;;;14.50;12.50;;;;;11.42;77.36;102055.31;5052831;28;45515;-55
2021/12/13 02:25:22;;;;;;;;;13.00;11.50;;;;;11.41;77.10;102059.75;5038069;28;45573;-62
2021/12/13 02:27:53;;;;;;;;;13.00;13.00;;;;;11.44;77.88;102064.09;5049984;28;48113;-54
2021/12/13 02:30:33;;;;;;;;;14.33;12.00;;;;;11.38;77.50;102059.00;5078812;27;45507;-59
2021/12/13 02:32:59;;;;;;;;;16.00;12.25;;;;;11.36;77.43;102067.06;5067425;27;45455;-53
2021/12/13 02:35:29;;;;;;;;;12.25;12.00;;;;;11.33;77.62;102052.97;5062908;27;45456;-58
2021/12/13 02:37:58;;;;;;;;;12.33;8.00;;;;;11.32;77.96;102053.88;5084432;27;46273;-57
2021/12/13 02:40:23;;;;;;;;;18.00;15.75;;;;;11.31;77.65;102044.16;5078265;27;45315;-58
2021/12/13 02:42:54;;;;;;;;;12.50;12.00;;;;;11.33;77.36;102050.28;5083720;27;45435;-58
2021/12/13 02:45:27;;;;;;;;;19.25;15.00;;;;;11.35;77.59;102053.81;5077478;27;45327;-59
2021/12/13 02:48:07;;;;;;;;;16.75;13.00;;;;;11.36;78.04;102047.53;5065713;27;47778;-60
2021/12/13 02:50:47;;;;;;;;;15.50;15.50;;;;;11.34;77.46;102050.28;5091726;27;45609;-57
2021/12/13 02:53:20;;;;;;;;;13.75;13.75;;;;;11.39;77.72;102055.41;5068636;27;45579;-60
2021/12/13 02:55:46;;;;;;;;;20.25;17.50;;;;;11.36;77.91;102044.88;5083214;27;45484;-57
2021/12/13 02:58:18;;;;;;;;;17.50;13.75;;;;;11.36;78.12;102044.88;5072012;27;46424;-58
2021/12/13 03:00:49;;;;;;;;;24.00;17.33;;;;;11.39;78.19;102050.09;5073241;27;45604;-56
2021/12/13 03:03:20;;;;;;;;;18.00;17.00;;;;;11.42;77.85;102052.63;5057065;28;45825;-61
2021/12/13 03:05:52;;;;;;;;;24.50;18.50;;;;;11.38;77.82;102043.03;5051039;28;45500;-57
2021/12/13 03:08:28;;;;;;;;;16.25;16.25;;;;;11.42;77.97;102047.31;5076162;27;46593;-56
2021/12/13 03:10:59;;;;;;;;;18.00;16.25;;;;;11.45;77.49;102055.19;5076803;28;45506;-59
2021/12/13 03:13:25;;;;;;;;;25.75;18.25;;;;;11.44;78.03;102053.44;5058433;28;45500;-57
2021/12/13 03:16:09;;;;;;;;;23.00;21.00;;;;;11.34;77.96;102038.75;5075486;27;45885;-60
2021/12/13 03:18:41;;;;;;;;;21.25;20.00;;;;;11.02;77.73;101979.50;5099461;27;46097;-58
2021/12/13 03:21:24;;;;;;;;;28.50;18.75;;;;;11.41;77.66;102048.25;5079220;27;45554;-57
2021/12/13 03:24:10;;;;;;;;;21.50;19.50;;;;;11.39;77.55;102055.41;5070813;27;45485;-58
2021/12/13 03:26:35;;;;;;;;;30.00;20.75;;;;;11.39;77.34;102044.75;5041954;28;45536;-53
2021/12/13 03:29:16;;;;;;;;;21.75;20.00;;;;;11.40;78.17;102042.03;5056504;28;46348;-56
2021/12/13 03:31:46;;;;;;;;;22.67;19.00;;;;;11.37;77.66;102036.84;5057793;28;45592;-59
2021/12/13 03:34:25;;;;;;;;;19.67;14.33;;;;;11.41;77.63;102037.59;5071627;27;45554;-58
2021/12/13 03:37:16;;;;;;;;;19.25;18.75;;;;;11.39;77.83;102039.44;5074092;27;45626;-58
2021/12/13 03:39:54;;;;;;;;;21.25;19.50;;;;;11.32;77.93;102030.78;5095831;27;45401;-57
2021/12/13 03:42:26;;;;;;;;;19.50;18.00;;;;;11.36;77.91;102044.88;5079210;27;46084;-55
2021/12/13 03:44:55;;;;;;;;;21.75;18.25;;;;;11.28;77.90;102026.50;5078140;27;45528;-58
2021/12/13 03:47:31;;;;;;;;;21.50;20.50;;;;;11.34;77.60;102033.41;5058073;28;45545;-60
2021/12/13 03:50:01;;;;;;;;;22.00;19.75;;;;;11.30;77.67;102029.09;5067591;27;46092;-56
2021/12/13 03:52:31;;;;;;;;;18.25;16.50;;;;;11.25;77.56;102012.44;5084799;27;45203;-58
2021/12/13 03:54:59;;;;;;;;;21.75;17.25;;;;;11.29;77.65;102017.59;5055669;28;46234;-55
2021/12/13 03:57:26;;;;;;;;;17.00;16.75;;;;;11.28;77.83;102014.97;5060894;28;45548;-56
2021/12/13 03:59:53;;;;;;;;;20.00;13.00;;;;;11.31;77.62;102020.19;5086350;27;45334;-60
2021/12/13 04:02:29;;;;;;;;;24.00;20.50;;;;;11.27;77.46;102024.75;5069979;28;45386;-61
2021/12/13 04:05:00;;;;;;;;;20.25;16.50;;;;;11.23;77.68;102012.50;5076698;27;45345;-57
2021/12/13 04:07:35;;;;;;;;;18.50;16.50;;;;;11.21;78.29;102023.22;5085424;27;45508;-56
2021/12/13 04:10:07;;;;;;;;;20.00;16.33;;;;;11.17;77.48;102021.56;5075028;27;46300;-57
2021/12/13 04:12:44;;;;;;;;;18.75;14.75;;;;;11.20;78.16;102029.47;5082351;27;45389;-59
2021/12/13 04:15:13;;;;;;;;;21.50;15.50;;;;;11.10;77.92;102017.41;5085021;27;45473;-62
2021/12/13 04:20:28;;;;;;;;;13.75;12.50;;;;;11.12;77.75;102012.00;5046836;28;48851;-62
2021/12/13 04:23:04;;;;;;;;;16.50;13.00;;;;;11.22;77.73;102029.41;5073226;28;46352;-56
2021/12/13 04:25:38;;;;;;;;;20.25;15.50;;;;;11.16;77.31;102016.28;5065484;27;45595;-62
2021/12/13 04:28:14;;;;;;;;;12.25;12.25;;;;;11.21;77.74;102025.88;5087290;27;45334;-56
2021/12/13 04:30:46;;;;;;;;;21.00;16.00;;;;;11.11;77.33;102007.59;5066354;27;45554;-60
2021/12/13 04:33:25;;;;;;;;;19.00;16.75;;;;;11.15;77.68;102018.09;5066244;27;45475;-62
2021/12/13 04:35:55;;;;;;;;;16.25;15.75;;;;;11.18;77.75;102020.63;5067939;27;45520;-61
2021/12/13 04:38:30;;;;;;;;;19.75;15.75;;;;;11.16;77.02;102021.63;5079746;27;45513;-61
2021/12/13 04:40:56;;;;;;;;;17.75;15.50;;;;;11.17;77.21;102018.88;5080272;27;45468;-60
2021/12/13 04:43:23;;;;;;;;;14.00;13.00;;;;;11.19;77.34;102030.34;5068054;27;45689;-60
2021/12/13 04:45:59;;;;;;;;;15.67;13.33;;;;;11.16;76.73;102027.81;5082250;27;45281;-60
2021/12/13 04:48:29;;;;;;;;;21.00;17.00;;;;;11.06;77.07;102014.88;5082011;27;45429;-55
2021/12/13 04:51:16;;;;;;;;;14.00;12.75;;;;;11.09;77.41;102026.31;5070377;28;45987;-62
2021/12/13 04:53:49;;;;;;;;;12.00;12.00;;;;;11.08;77.36;102027.22;5069021;27;45571;-60
2021/12/13 04:56:19;;;;;;;;;17.33;15.33;;;;;11.12;77.02;102036.84;5063109;28;45472;-58
2021/12/13 04:58:47;;;;;;;;;11.25;8.75;;;;;11.13;77.23;102033.25;5082204;27;45520;-53
2021/12/13 05:01:15;;;;;;;;;11.33;10.33;;;;;11.08;77.06;102024.56;5047055;27;47800;-56
2021/12/13 05:03:45;;;;;;;;;16.75;11.25;;;;;11.14;77.20;102036.78;5073960;27;45573;-57
2021/12/13 05:06:24;;;;;;;;;11.67;11.00;;;;;11.06;77.31;102030.84;5061352;27;45333;-58
2021/12/13 05:08:54;;;;;;;;;12.50;11.00;;;;;11.07;76.96;102028.16;5085643;27;45373;-58
2021/12/13 05:11:20;;;;;;;;;13.67;11.67;;;;;11.15;76.97;102047.38;5072215;27;46127;-64
2021/12/13 05:13:53;;;;;;;;;17.67;9.00;;;;;11.14;76.76;102050.97;5072654;28;45248;-59
2021/12/13 05:16:35;;;;;;;;;13.50;12.25;;;;;11.11;76.62;102048.41;5056938;28;45503;-59
2021/12/13 05:19:02;;;;;;;;;12.00;11.00;;;;;11.10;76.27;102054.66;5067991;27;45428;-58
2021/12/13 05:21:49;;;;;;;;;13.00;9.33;;;;;11.08;76.62;102047.66;5055357;28;45361;-63
2021/12/13 05:24:22;;;;;;;;;9.67;8.67;;;;;11.03;76.41;102045.13;5065815;28;45468;-60
2021/12/13 05:27:04;;;;;;;;;11.00;9.33;;;;;11.00;76.37;102042.59;5059219;27;45366;-60
2021/12/13 05:29:43;;;;;;;;;13.33;10.67;;;;;11.01;76.05;102047.00;5091379;27;45607;-60
2021/12/13 05:32:11;;;;;;;;;12.33;9.67;;;;;11.02;75.41;102045.19;5073708;27;45350;-62
2021/12/13 05:35:08;;;;;;;;;11.75;11.00;;;;;11.01;75.93;102046.13;5063842;27;45424;-60
2021/12/13 05:37:41;;;;;;;;;13.00;11.25;;;;;11.05;76.10;102045.09;5079453;27;45370;-60
2021/12/13 05:40:11;;;;;;;;;14.67;14.00;;;;;11.03;76.60;102042.47;5075808;27;45258;-56
2021/12/13 05:42:39;;;;;;;;;14.67;13.00;;;;;11.04;76.34;102051.34;5075770;27;46182;-59
2021/12/13 05:45:10;;;;;;;;;14.33;12.00;;;;;10.92;77.02;102034.84;5073260;27;45591;-66
2021/12/13 05:47:36;;;;;;;;;14.67;11.00;;;;;11.03;76.74;102044.28;5076728;27;45938;-55
2021/12/13 05:50:05;;;;;;;;;13.33;13.33;;;;;11.07;76.69;102045.94;5075735;27;45988;-59
2021/12/13 05:52:36;;;;;;;;;11.00;11.00;;;;;11.05;76.47;102048.63;5069625;28;45643;-58
2021/12/13 05:55:10;;;;;;;;;10.33;10.33;;;;;11.01;76.13;102049.66;5072952;27;45510;-57
2021/12/13 05:57:43;;;;;;;;;12.00;12.00;;;;;11.01;76.51;102052.31;5058735;27;45615;-58
2021/12/13 06:00:11;;;;;;;;;9.33;9.33;;;;;10.97;76.23;102040.03;5049395;28;45543;-56
2021/12/13 06:02:43;;;;;;;;;14.67;12.00;;;;;11.00;76.72;102047.91;5069591;27;46128;-58
2021/12/13 06:05:29;;;;;;;;;12.00;11.67;;;;;10.99;76.14;102047.97;5057357;27;45675;-58
2021/12/13 06:07:58;;;;;;;;;16.25;13.00;;;;;10.88;76.58;102037.69;5062334;27;45375;-61
2021/12/13 06:10:38;;;;;;;;;16.00;13.33;;;;;10.96;76.89;102059.59;5073936;27;45694;-60
2021/12/13 06:13:06;;;;;;;;;15.33;15.33;;;;;10.78;76.06;102026.47;5067114;28;45965;-64
2021/12/13 06:15:41;;;;;;;;;16.00;14.00;;;;;10.84;76.33;102036.06;5040223;27;45763;-60
2021/12/13 06:18:12;;;;;;;;;12.00;12.00;;;;;10.98;76.74;102047.09;5070027;28;45452;-60
2021/12/13 06:21:08;;;;;;;;;18.00;12.25;;;;;10.99;76.98;102056.81;5069362;28;45543;-61
2021/12/13 06:23:37;;;;;;;;;14.50;14.00;;;;;10.92;75.85;102039.31;5076346;28;45537;-62
2021/12/13 06:26:08;;;;;;;;;15.50;15.00;;;;;11.00;75.96;102058.56;5076386;27;45373;-60
2021/12/13 06:28:37;;;;;;;;;17.00;12.50;;;;;10.92;76.27;102048.16;5074310;28;45424;-58
2021/12/13 06:31:10;;;;;;;;;17.67;14.33;;;;;11.01;75.97;102048.78;5076201;28;45491;-61
2021/12/13 06:33:53;;;;;;;;;12.33;12.33;;;;;10.99;75.83;102051.50;5055204;28;46214;-61
2021/12/13 06:36:36;;;;;;;;;16.67;13.67;;;;;11.03;76.59;102058.44;5064950;28;45386;-57
2021/12/13 06:39:11;;;;;;;;;13.00;12.00;;;;;10.93;76.39;102049.03;5075818;28;45381;-61
2021/12/13 06:41:41;;;;;;;;;17.00;13.67;;;;;10.99;76.10;102064.81;5076438;28;45291;-60
2021/12/13 06:44:20;;;;;;;;;12.67;12.67;;;;;10.98;75.69;102064.88;5058023;28;45403;-65
2021/12/13 06:46:49;;;;;;;;;12.00;12.00;;;;;10.94;76.22;102064.13;5069121;28;45608;-61
2021/12/13 06:49:23;;;;;;;;;18.33;16.33;;;;;10.91;75.83;102058.88;5041278;28;45571;-65
2021/12/13 06:51:51;;;;;;;;;17.67;14.33;;;;;10.76;75.82;102036.31;5076043;28;45413;-59
2021/12/13 06:55:00;;;;;;;;;16.50;14.75;;;;;10.91;75.73;102067.72;5075311;28;45459;-57
2021/12/13 06:57:50;;;;;;;;;16.67;13.00;;;;;10.95;75.57;102067.66;4973895;28;45434;-58
2021/12/13 07:00:22;;;;;;;;;20.50;14.75;;;;;10.97;75.83;102063.13;5071369;28;45366;-60
2021/12/13 07:02:55;;;;;;;;;14.25;12.00;;;;;10.89;75.27;102056.25;5075980;28;45628;-61
2021/12/13 07:05:36;;;;;;;;;11.25;11.00;;;;;10.85;74.84;102043.13;5069859;28;45319;-60
2021/12/13 07:08:24;;;;;;;;;12.50;11.25;;;;;10.89;76.13;102050.06;5075559;28;45397;-61
2021/12/13 07:10:53;;;;;;;;;11.00;11.00;;;;;10.87;75.36;102060.78;5054389;28;45292;-61
2021/12/13 07:13:33;;;;;;;;;18.25;13.00;;;;;10.83;75.12;102064.47;5055544;28;45583;-61
2021/12/13 07:16:11;;;;;;;;;15.50;13.75;;;;;10.79;75.39;102061.94;5044813;28;48336;-59
2021/12/13 07:18:52;;;;;;;;;12.25;10.75;;;;;10.80;76.04;102061.00;5075452;28;45255;-62
2021/12/13 07:21:43;;;;;;;;;13.00;8.00;;;;;10.81;75.73;102065.44;5065551;28;45434;-60
2021/12/13 07:24:31;;;;;;;;;18.33;14.33;;;;;10.80;75.59;102050.38;5070947;28;45176;-60
2021/12/13 07:27:06;;;;;;;;;11.00;11.00;;;;;10.84;75.52;102063.53;5074043;28;46522;-60
2021/12/13 07:29:37;;;;;;;;;10.67;9.33;;;;;10.79;75.84;102053.97;5036909;27;45571;-61
2021/12/13 07:32:15;;;;;;;;;9.33;9.33;;;;;10.81;75.17;102062.78;5066552;28;45869;-58
2021/12/13 07:34:59;;;;;;;;;10.33;8.00;;;;;10.77;75.41;102061.13;5065305;27;45713;-61
2021/12/13 07:37:55;;;;;;;;;6.33;6.00;;;;;10.70;75.26;102057.81;5066003;28;45296;-60
2021/12/13 07:40:29;;;;;;;;;10.00;6.33;;;;;10.82;74.85;102081.38;5064726;28;45524;-61
2021/12/13 07:43:00;;;;;;;;;3.33;3.00;;;;;10.79;74.41;102072.59;5051185;28;45396;-59
2021/12/13 07:45:52;;;;;;;;;7.00;5.33;;;;;10.84;74.77;102081.31;5073648;27;45453;-58
2021/12/13 07:48:23;;;;;;;;;4.67;4.67;;;;;10.90;75.65;102081.09;5029921;27;45575;-58
2021/12/13 07:51:20;;;;;;;;;5.67;3.67;;;;;10.91;75.10;102074.84;5070269;28;45453;-61
2021/12/13 07:53:48;;;;;;;;;6.00;6.00;;;;;10.91;74.71;102074.84;5046108;28;45457;-61
2021/12/13 07:56:22;;;;;;;;;12.33;6.00;;;;;10.88;74.11;102065.19;5075123;28;45669;-62
2021/12/13 07:58:52;;;;;;;;;1.67;1.67;;;;;10.87;74.80;102065.22;5058953;28;45447;-61
2021/12/13 08:01:19;;;;;;;;;7.00;6.00;;;;;10.92;74.55;102073.91;5064986;28;45351;-60
2021/12/13 08:03:50;;;;;;;;;6.00;4.33;;;;;10.93;74.34;102068.53;5056628;28;45394;-59
2021/12/13 08:06:16;;;;;;;;;6.00;6.00;;;;;10.92;74.38;102057.94;5058712;28;45430;-59
2021/12/13 08:09:04;;;;;;;;;7.67;7.67;;;;;11.03;74.57;102062.91;5060119;28;46302;-61
2021/12/13 08:11:42;;;;;;;;;6.00;4.33;;;;;10.98;74.13;102056.88;5077529;28;45202;-61
2021/12/13 08:14:09;;;;;;;;;9.67;7.67;;;;;10.94;74.59;102074.75;5072277;28;45456;-60
2021/12/13 08:16:43;;;;;;;;;7.67;7.00;;;;;10.93;74.63;102060.56;5067212;28;46010;-60
2021/12/13 08:19:15;;;;;;;;;8.33;6.67;;;;;11.02;74.05;102072.69;5077875;28;45361;-60
2021/12/13 08:21:45;;;;;;;;;12.00;12.00;;;;;10.97;74.38;102064.00;5069205;28;45380;-61
2021/12/13 08:24:22;;;;;;;;;13.00;11.33;;;;;10.99;74.22;102072.78;5078570;28;45222;-61
2021/12/13 08:26:56;;;;;;;;;8.00;8.00;;;;;11.02;73.72;102080.66;5050331;28;45478;-59
2021/12/13 08:29:28;;;;;;;;;13.75;11.75;;;;;11.02;74.02;102080.66;5062709;28;46437;-60
2021/12/13 08:31:59;;;;;;;;;16.00;13.75;;;;;10.99;74.77;102083.44;5063996;28;45406;-60
2021/12/13 08:34:42;;;;;;;;;13.00;11.50;;;;;10.93;74.11;102079.19;5058027;28;45372;-60
2021/12/13 08:37:19;;;;;;;;;13.00;12.25;;;;;11.00;74.79;102082.53;5047001;28;45567;-60
2021/12/13 08:39:49;;;;;;;;;14.00;11.00;;;;;11.00;74.53;102069.22;5058960;28;46229;-62
2021/12/13 08:42:18;;;;;;;;;10.00;10.00;;;;;10.99;74.29;102071.94;5040273;28;45481;-58
2021/12/13 08:45:06;;;;;;;;;15.75;12.50;;;;;10.90;75.14;102073.97;5074010;28;45251;-60
2021/12/13 08:47:57;;;;;;;;;15.50;12.00;;;;;10.88;75.41;102091.78;5044876;28;45467;-58
2021/12/13 08:50:56;;;;;;;;;14.25;13.25;;;;;10.88;75.46;102085.59;5057763;28;45507;-59
2021/12/13 08:53:30;;;;;;;;;13.00;12.00;;;;;10.97;75.65;102090.63;5052785;28;45414;-61
2021/12/13 08:56:11;;;;;;;;;16.67;13.67;;;;;10.99;75.14;102082.56;5071947;28;45425;-61
2021/12/13 08:58:52;;;;;;;;;11.33;11.33;;;;;10.96;74.72;102088.00;5056698;28;45580;-59
2021/12/13 09:01:17;;;;;;;;;14.33;13.00;;;;;10.92;74.86;102096.06;5066194;28;45596;-59
2021/12/13 09:03:49;;;;;;;;;13.00;11.50;;;;;10.88;74.95;102088.25;5063677;28;45448;-60
2021/12/13 09:06:17;;;;;;;;;13.75;9.25;;;;;10.84;75.15;102094.63;5070486;28;45519;-60
2021/12/13 09:08:49;;;;;;;;;12.75;8.00;;;;;10.82;75.64;102096.47;5046222;28;45584;-61
2021/12/13 09:11:39;;;;;;;;;10.25;7.75;;;;;10.78;75.70;102094.81;5050193;28;47519;-62
2021/12/13 09:14:19;;;;;;;;;10.00;10.00;;;;;10.75;76.18;102093.13;5069624;28;45708;-60
2021/12/13 09:17:14;;;;;;;;;10.00;10.00;;;;;10.79;75.68;102100.06;5069018;28;45486;-61
2021/12/13 09:19:48;;;;;;;;;8.25;8.25;;;;;10.83;74.87;102098.19;5075694;28;45228;-62
2021/12/13 09:22:19;;;;;;;;;8.75;7.00;;;;;10.85;75.64;102105.22;5071228;28;45986;-62
2021/12/13 09:25:00;;;;;;;;;7.33;3.00;;;;;10.85;74.59;102112.31;5041052;28;45518;-60
2021/12/13 09:27:32;;;;;;;;;3.00;3.00;;;;;10.86;73.19;102119.38;5065533;28;45745;-62
2021/12/13 09:30:00;;;;;;;;;3.67;2.33;;;;;10.80;73.97;102114.25;5047203;28;45470;-61
2021/12/13 09:32:33;;;;;;;;;4.67;4.67;;;;;10.80;73.95;102114.25;5066943;28;45964;-60
2021/12/13 09:35:20;;;;;;;;;6.33;5.67;;;;;10.81;73.86;102110.69;5049773;28;45464;-60
2021/12/13 09:37:46;;;;;;;;;1.00;1.00;;;;;10.90;73.36;102110.38;5071818;28;45413;-60
2021/12/13 09:40:16;;;;;;;;;3.67;3.67;;;;;10.92;72.37;102108.50;5066390;28;45658;-59
2021/12/13 09:42:48;;;;;;;;;7.00;6.00;;;;;10.90;72.72;102113.03;5065526;28;45312;-60
2021/12/13 09:45:22;;;;;;;;;6.25;5.25;;;;;10.86;73.00;102108.75;5066950;28;45469;-61
2021/12/13 09:47:48;;;;;;;;;9.33;4.67;;;;;10.77;73.40;102099.25;5075543;28;45413;-64
2021/12/13 09:50:22;;;;;;;;;6.00;6.00;;;;;10.73;73.60;102102.94;5075088;28;45537;-61
2021/12/13 09:53:03;;;;;;;;;4.33;3.67;;;;;10.80;73.72;102108.91;5057134;28;45418;-59
2021/12/13 09:55:32;;;;;;;;;9.67;8.00;;;;;10.83;72.77;102119.50;5057096;28;45266;-62
2021/12/13 09:58:17;;;;;;;;;4.67;4.67;;;;;10.79;72.36;102109.84;5058057;28;45529;-59
2021/12/13 10:00:48;;;;;;;;;5.00;5.00;;;;;10.82;73.31;102115.97;5061196;28;45465;-58
2021/12/13 10:03:18;;;;;;;;;3.00;3.00;;;;;10.78;72.49;102105.44;5076588;28;45493;-60
2021/12/13 10:05:49;;;;;;;;;6.00;2.00;;;;;10.76;71.66;102112.63;5058311;28;45411;-60
2021/12/13 10:08:22;;;;;;;;;3.67;3.00;;;;;10.77;71.54;102114.34;5075749;28;45318;-62
2021/12/13 10:10:54;;;;;;;;;3.00;3.00;;;;;10.84;71.50;102115.91;5056350;28;45525;-61
2021/12/13 10:13:28;;;;;;;;;2.67;1.33;;;;;10.89;71.01;102116.63;5076076;28;47688;-60
2021/12/13 10:16:07;;;;;;;;;2.00;2.00;;;;;10.85;71.29;102113.19;5055287;28;45473;-61
2021/12/13 10:18:35;;;;;;;;;1.00;1.00;;;;;10.85;70.43;102113.19;5072210;28;45229;-60
2021/12/13 10:21:08;;;;;;;;;3.00;1.67;;;;;10.78;71.10;102114.28;5058629;28;45604;-61
2021/12/13 10:23:39;;;;;;;;;4.33;2.67;;;;;10.66;70.16;102106.72;5076521;28;45319;-60
2021/12/13 10:26:08;;;;;;;;;6.00;3.00;;;;;10.58;70.19;102108.75;5068150;28;45442;-59
2021/12/13 10:28:38;;;;;;;;;3.00;1.00;;;;;10.56;70.54;102114.13;5072892;28;46002;-58
2021/12/13 10:31:09;;;;;;;;;5.00;5.00;;;;;10.54;69.93;102102.66;5056564;28;45724;-60
2021/12/13 10:33:37;;;;;;;;;6.00;3.50;;;;;10.52;71.09;102099.16;5070593;28;45423;-59
2021/12/13 10:36:03;;;;;;;;;5.00;5.00;;;;;10.50;69.98;102100.16;5059290;28;45465;-60
2021/12/13 10:38:34;;;;;;;;;2.50;2.50;;;;;10.40;70.47;102099.56;5058099;28;45319;-60
2021/12/13 10:41:22;;;;;;;;;3.00;3.00;;;;;10.36;71.28;102097.91;5050334;28;45391;-60
2021/12/13 10:43:51;;;;;;;;;3.33;3.33;;;;;10.31;70.93;102091.88;5077022;28;45306;-62
2021/12/13 10:46:23;;;;;;;;;8.00;6.75;;;;;10.28;71.07;102108.78;5057643;28;45307;-62
2021/12/13 10:48:56;;;;;;;;;5.00;5.00;;;;;10.22;71.35;102105.47;5056730;28;45532;-59
2021/12/13 10:51:28;;;;;;;;;6.00;6.00;;;;;10.31;71.18;102107.84;5056567;28;45416;-61
2021/12/13 10:53:56;;;;;;;;;3.00;3.00;;;;;10.30;71.35;102103.44;5065935;28;45429;-61
2021/12/13 10:56:28;;;;;;;;;16.00;12.75;;;;;10.26;71.87;102099.13;5059813;28;45916;-60
2021/12/13 10:58:57;;;;;;;;;3.00;3.00;;;;;10.18;70.99;102098.47;5061944;28;45408;-60
2021/12/13 11:01:30;;;;;;;;;3.00;3.00;;;;;10.13;71.15;102093.28;5060172;28;45850;-61
2021/12/13 11:03:57;;;;;;;;;3.67;3.67;;;;;10.19;70.54;102095.75;5067526;28;45351;-61
2021/12/13 11:06:24;;;;;;;;;3.00;3.00;;;;;10.15;70.62;102098.53;5056166;28;45430;-62
2021/12/13 11:08:51;;;;;;;;;5.00;4.33;;;;;10.15;71.05;102104.72;5055937;28;45579;-62
2021/12/13 11:11:28;;;;;;;;;1.67;1.67;;;;;10.20;71.83;102105.47;5050517;28;45339;-62
2021/12/13 11:13:57;;;;;;;;;5.67;5.67;;;;;10.25;71.11;102105.34;5076393;28;45419;-67
2021/12/13 11:16:31;;;;;;;;;9.50;7.00;;;;;10.20;71.67;102107.25;5064009;28;45950;-61
2021/12/13 11:18:57;;;;;;;;;11.25;8.00;;;;;10.17;71.04;102107.38;5037924;28;45462;-60
2021/12/13 11:21:30;;;;;;;;;6.25;6.25;;;;;10.12;71.12;102101.28;5056544;28;45460;-62
2021/12/13 11:23:57;;;;;;;;;11.00;9.00;;;;;10.08;72.07;102095.22;5055991;28;47296;-62
2021/12/13 11:26:25;;;;;;;;;7.00;7.00;;;;;10.11;70.90;102100.44;5057178;28;45437;-60
2021/12/13 11:28:51;;;;;;;;;4.25;3.00;;;;;10.13;72.51;102105.69;5071536;28;45375;-60
2021/12/13 11:31:42;;;;;;;;;5.75;3.50;;;;;10.14;71.77;102113.63;5067715;28;45501;-61
2021/12/13 11:34:45;;;;;;;;;6.00;6.00;;;;;10.02;72.07;102098.03;5022765;28;47361;-59
2021/12/13 11:37:38;;;;;;;;;7.50;6.50;;;;;10.00;72.00;102098.09;5076981;28;45453;-63
2021/12/13 11:40:41;;;;;;;;;9.50;9.00;;;;;10.04;72.88;102096.22;5060592;28;45426;-66
2021/12/13 11:43:10;;;;;;;;;13.75;10.00;;;;;10.05;72.05;102090.88;5040810;28;45561;-62
2021/12/13 11:45:49;;;;;;;;;11.00;9.75;;;;;10.05;72.79;102090.88;5058624;28;45430;-61
2021/12/13 11:48:51;;;;;;;;;10.25;8.25;;;;;10.07;72.37;102090.81;5039910;28;45496;-59
2021/12/13 11:52:04;;;;;;;;;8.50;8.25;;;;;10.12;71.84;102094.19;5059269;28;45517;-64
2021/12/13 11:54:46;;;;;;;;;7.75;7.25;;;;;10.08;71.56;102081.06;5060320;28;45369;-62
2021/12/13 11:57:49;;;;;;;;;8.00;6.00;;;;;10.14;71.93;102080.84;5074839;28;45546;-60